createdAt,value
2019-06-01T00:01:31.605Z,96.38
2019-06-01T00:04:00.485Z,96.52
2019-06-01T00:06:29.015Z,96.63
2019-06-01T00:08:57.451Z,96.33
2019-06-01T00:11:25.925Z,96.53
2019-06-01T00:13:54.722Z,96.70
2019-06-01T00:16:23.218Z,96.70
2019-06-01T00:18:51.612Z,96.53
2019-06-01T00:21:20.012Z,96.44
2019-06-01T00:23:48.766Z,96.46
2019-06-01T00:26:17.425Z,96.32
2019-06-01T00:28:46.131Z,96.46
2019-06-01T00:31:14.917Z,96.65
2019-06-01T00:33:43.415Z,96.42
2019-06-01T00:36:11.844Z,96.02
2019-06-01T00:38:41.508Z,96.36
2019-06-01T00:41:10.100Z,96.24
2019-06-01T00:43:38.559Z,96.56
2019-06-01T00:46:06.971Z,96.83
2019-06-01T00:48:35.363Z,96.73
2019-06-01T00:51:04.110Z,96.73
2019-06-01T00:53:32.485Z,97.11
2019-06-01T00:56:00.973Z,97.38
2019-06-01T00:58:29.367Z,97.55
2019-06-01T01:00:57.747Z,97.49
2019-06-01T01:03:26.142Z,97.30
2019-06-01T01:05:54.897Z,97.28
2019-06-01T01:08:23.454Z,98.05
2019-06-01T01:10:53.079Z,98.35
2019-06-01T01:13:23.316Z,98.83
2019-06-01T01:15:52.108Z,98.93
2019-06-01T01:18:20.553Z,98.57
2019-06-01T01:20:50.053Z,98.25
2019-06-01T01:23:18.644Z,97.92
2019-06-01T01:25:48.116Z,97.73
2019-06-01T01:28:17.284Z,97.65
2019-06-01T01:31:01.554Z,97.04
2019-06-01T01:33:15.952Z,97.06
2019-06-01T01:35:44.404Z,97.13
2019-06-01T01:38:13.156Z,97.13
2019-06-01T01:40:41.546Z,97.02
2019-06-01T01:43:09.998Z,96.95
2019-06-01T01:45:38.542Z,97.00
2019-06-01T01:48:06.920Z,96.96
2019-06-01T01:50:35.402Z,97.22
2019-06-01T01:53:03.778Z,97.40
2019-06-01T01:55:32.348Z,97.47
2019-06-01T01:58:01.630Z,97.12
2019-06-01T02:00:42.353Z,96.87
2019-06-01T02:03:11.503Z,96.97
2019-06-01T02:05:40.290Z,96.78
2019-06-01T02:08:09.750Z,96.60
2019-06-01T02:10:38.282Z,96.20
2019-06-01T02:13:07.111Z,96.37
2019-06-01T02:15:36.642Z,96.26
2019-06-01T02:18:05.997Z,95.42
2019-06-01T02:20:34.768Z,95.18
2019-06-01T02:23:03.729Z,94.86
2019-06-01T02:25:32.258Z,95.39
2019-06-01T02:28:01.408Z,95.52
2019-06-01T02:30:30.263Z,96.18
2019-06-01T02:33:00.092Z,95.94
2019-06-01T02:35:28.803Z,96.55
2019-06-01T02:37:58.575Z,96.63
2019-06-01T02:40:28.117Z,96.73
2019-06-01T02:42:57.196Z,96.63
2019-06-01T02:45:26.183Z,96.51
2019-06-01T02:47:55.342Z,96.64
2019-06-01T02:50:24.069Z,96.70
2019-06-01T02:52:52.507Z,96.91
2019-06-01T02:55:21.192Z,97.07
2019-06-01T02:57:49.656Z,97.26
2019-06-01T03:00:20.646Z,97.17
2019-06-01T03:02:49.098Z,97.25
2019-06-01T03:05:19.404Z,97.34
2019-06-01T03:07:48.221Z,97.52
2019-06-01T03:10:16.702Z,97.51
2019-06-01T03:12:45.798Z,97.22
2019-06-01T03:15:15.598Z,97.57
2019-06-01T03:17:46.847Z,97.70
2019-06-01T03:20:15.673Z,97.59
2019-06-01T03:22:44.542Z,97.57
2019-06-01T03:25:13.227Z,97.87
2019-06-01T03:27:43.556Z,97.87
2019-06-01T03:30:15.430Z,97.99
2019-06-01T03:32:43.001Z,98.26
2019-06-01T03:35:11.640Z,98.61
2019-06-01T03:37:40.049Z,98.62
2019-06-01T03:40:18.561Z,98.47
2019-06-01T03:42:39.057Z,98.66
2019-06-01T03:45:07.681Z,98.36
2019-06-01T03:47:36.105Z,98.59
2019-06-01T03:50:06.934Z,98.85
2019-06-01T03:52:35.430Z,99.28
2019-06-01T03:55:05.925Z,98.96
2019-06-01T03:57:34.344Z,98.44
2019-06-01T04:00:03.467Z,98.76
2019-06-01T04:02:33.366Z,98.74
2019-06-01T04:05:03.302Z,98.51
2019-06-01T04:07:32.243Z,98.42
2019-06-01T04:10:01.659Z,98.04
2019-06-01T04:12:30.402Z,97.64
2019-06-01T04:14:59.015Z,97.54
2019-06-01T04:17:27.746Z,97.54
2019-06-01T04:19:56.147Z,96.97
2019-06-01T04:22:24.606Z,97.55
2019-06-01T04:24:53.069Z,97.78
2019-06-01T04:27:21.451Z,97.58
2019-06-01T04:29:49.933Z,97.49
2019-06-01T04:32:18.312Z,97.37
2019-06-01T04:34:46.762Z,97.68
2019-06-01T04:37:16.808Z,97.51
2019-06-01T04:39:45.273Z,97.13
2019-06-01T04:42:13.963Z,97.39
2019-06-01T04:44:42.549Z,97.21
2019-06-01T04:47:12.445Z,96.41
2019-06-01T04:49:41.086Z,96.62
2019-06-01T04:52:11.790Z,97.30
2019-06-01T04:54:39.633Z,96.90
2019-06-01T04:57:08.924Z,96.56
2019-06-01T04:59:37.976Z,96.43
2019-06-01T05:02:07.345Z,96.25
2019-06-01T05:04:36.179Z,95.71
2019-06-01T05:07:05.066Z,94.85
2019-06-01T05:09:33.682Z,94.99
2019-06-01T05:12:02.064Z,94.60
2019-06-01T05:14:30.830Z,94.67
2019-06-01T05:16:59.216Z,94.54
2019-06-01T05:19:27.659Z,93.37
2019-06-01T05:21:56.072Z,93.92
2019-06-01T05:24:24.530Z,93.18
2019-06-01T05:26:52.939Z,93.56
2019-06-01T05:29:21.397Z,93.53
2019-06-01T05:31:49.793Z,93.54
2019-06-01T05:34:18.599Z,93.34
2019-06-01T05:36:47.370Z,93.48
2019-06-01T05:39:16.416Z,93.04
2019-06-01T05:41:44.849Z,93.62
2019-06-01T05:44:13.294Z,93.43
2019-06-01T05:46:41.765Z,93.37
2019-06-01T05:49:12.043Z,93.77
2019-06-01T05:51:40.830Z,93.19
2019-06-01T05:54:10.377Z,92.91
2019-06-01T05:56:39.050Z,93.29
2019-06-01T05:59:07.811Z,92.88
2019-06-01T06:01:36.179Z,92.97
2019-06-01T06:04:04.724Z,93.25
2019-06-01T06:06:33.106Z,93.43
2019-06-01T06:09:01.595Z,92.94
2019-06-01T06:11:30.045Z,92.58
2019-06-01T06:13:58.498Z,90.73
2019-06-01T06:16:26.944Z,91.47
2019-06-01T06:18:55.322Z,90.97
2019-06-01T06:21:23.726Z,91.74
2019-06-01T06:23:52.299Z,91.56
2019-06-01T06:26:22.363Z,91.21
2019-06-01T06:28:50.807Z,90.83
2019-06-01T06:31:19.296Z,90.92
2019-06-01T06:33:56.410Z,89.32
2019-06-01T06:36:18.201Z,89.75
2019-06-01T06:38:46.736Z,88.96
2019-06-01T06:41:16.119Z,88.33
2019-06-01T06:43:45.013Z,87.04
2019-06-01T06:46:14.457Z,86.76
2019-06-01T06:48:43.057Z,84.42
2019-06-01T06:51:11.776Z,84.18
2019-06-01T06:53:40.254Z,83.38
2019-06-01T06:56:08.622Z,84.04
2019-06-01T06:58:37.007Z,83.77
2019-06-01T07:01:05.892Z,82.62
2019-06-01T07:03:34.347Z,80.81
2019-06-01T07:06:02.743Z,81.40
2019-06-01T07:08:31.216Z,78.54
2019-06-01T07:10:59.616Z,77.60
2019-06-01T07:13:27.997Z,78.17
2019-06-01T07:15:56.537Z,77.07
2019-06-01T07:18:25.778Z,75.48
2019-06-01T07:20:54.548Z,74.98
2019-06-01T07:23:23.866Z,72.97
2019-06-01T07:25:52.352Z,72.38
2019-06-01T07:28:21.984Z,72.56
2019-06-01T07:30:50.928Z,71.26
2019-06-01T07:33:20.471Z,67.11
2019-06-01T07:35:50.289Z,66.81
2019-06-01T07:38:20.237Z,66.12
2019-06-01T07:40:48.720Z,64.51
2019-06-01T07:43:17.136Z,65.46
2019-06-01T07:45:45.907Z,66.54
2019-06-01T07:48:14.381Z,66.20
2019-06-01T07:50:42.787Z,66.79
2019-06-01T07:53:11.246Z,66.47
2019-06-01T07:55:39.886Z,66.32
2019-06-01T07:58:08.276Z,64.95
2019-06-01T08:00:36.814Z,63.50
2019-06-01T08:03:06.227Z,61.41
2019-06-01T08:05:35.053Z,58.48
2019-06-01T08:08:04.174Z,59.78
2019-06-01T08:10:32.624Z,58.94
2019-06-01T08:13:02.626Z,57.09
2019-06-01T08:15:31.845Z,56.17
2019-06-01T08:18:00.414Z,52.46
2019-06-01T08:20:30.244Z,52.17
2019-06-01T08:22:58.822Z,52.50
2019-06-01T08:25:28.588Z,52.36
2019-06-01T08:27:57.539Z,50.03
2019-06-01T08:30:26.420Z,50.43
2019-06-01T08:32:55.373Z,51.96
2019-06-01T08:35:24.859Z,52.44
2019-06-01T08:37:53.416Z,53.89
2019-06-01T08:40:23.282Z,54.64
2019-06-01T08:42:51.891Z,56.31
2019-06-01T08:45:20.386Z,55.46
2019-06-01T08:47:48.792Z,56.12
2019-06-01T08:50:17.685Z,56.42
2019-06-01T08:52:46.087Z,54.50
2019-06-01T08:55:14.549Z,54.30
2019-06-01T08:57:44.344Z,52.06
2019-06-01T09:00:13.270Z,51.56
2019-06-01T09:02:41.805Z,52.21
2019-06-01T09:05:23.293Z,53.14
2019-06-01T09:07:40.914Z,51.93
2019-06-01T09:10:10.654Z,54.00
2019-06-01T09:12:39.035Z,51.96
2019-06-01T09:15:09.805Z,51.65
2019-06-01T09:17:38.310Z,50.20
2019-06-01T09:20:07.491Z,50.16
2019-06-01T09:22:35.952Z,52.27
2019-06-01T09:25:05.041Z,51.82
2019-06-01T09:27:33.960Z,51.41
2019-06-01T09:30:02.569Z,50.04
2019-06-01T09:32:32.241Z,50.01
2019-06-01T09:35:01.109Z,49.75
2019-06-01T09:37:30.534Z,49.22
2019-06-01T09:39:59.120Z,51.49
2019-06-01T09:42:28.778Z,53.14
2019-06-01T09:44:57.319Z,52.62
2019-06-01T09:47:26.975Z,53.49
2019-06-01T09:49:56.198Z,54.54
2019-06-01T09:52:24.990Z,55.09
2019-06-01T09:54:53.470Z,55.02
2019-06-01T09:57:21.945Z,55.12
2019-06-01T09:59:50.394Z,55.28
2019-06-01T10:02:18.903Z,55.90
2019-06-01T10:04:47.432Z,55.71
2019-06-01T10:07:15.905Z,53.81
2019-06-01T10:09:44.320Z,53.32
2019-06-01T10:12:12.833Z,52.67
2019-06-01T10:14:42.270Z,54.36
2019-06-01T10:17:11.004Z,54.28
2019-06-01T10:19:39.449Z,54.88
2019-06-01T10:22:07.871Z,54.04
2019-06-01T10:24:37.215Z,54.05
2019-06-01T10:27:05.851Z,53.86
2019-06-01T10:29:34.706Z,54.08
2019-06-01T10:32:03.500Z,53.49
2019-06-01T10:34:31.929Z,52.69
2019-06-01T10:37:00.376Z,51.73
2019-06-01T10:39:29.342Z,51.46
2019-06-01T10:41:57.963Z,50.13
2019-06-01T10:44:26.373Z,50.79
2019-06-01T10:46:57.767Z,50.37
2019-06-01T10:49:26.275Z,48.46
2019-06-01T10:51:54.715Z,47.45
2019-06-01T10:54:23.161Z,47.29
2019-06-01T10:56:51.942Z,47.78
2019-06-01T10:59:20.842Z,48.27
2019-06-01T11:01:49.221Z,48.05
2019-06-01T11:04:17.813Z,47.86
2019-06-01T11:06:48.650Z,49.28
2019-06-01T11:09:16.594Z,48.34
2019-06-01T11:11:44.956Z,49.70
2019-06-01T11:14:13.819Z,49.20
2019-06-01T11:16:43.702Z,49.28
2019-06-01T11:19:12.752Z,48.32
2019-06-01T11:21:41.727Z,47.91
2019-06-01T11:24:10.269Z,47.95
2019-06-01T11:26:39.723Z,48.14
2019-06-01T11:29:08.602Z,47.28
2019-06-01T11:31:38.323Z,47.08
2019-06-01T11:34:06.916Z,45.55
2019-06-01T11:36:36.196Z,45.25
2019-06-01T11:39:06.643Z,44.35
2019-06-01T11:41:36.311Z,42.77
2019-06-01T11:44:04.966Z,41.12
2019-06-01T11:46:34.646Z,40.51
2019-06-01T11:49:03.241Z,40.67
2019-06-01T11:51:31.719Z,41.22
2019-06-01T11:54:00.236Z,41.66
2019-06-01T11:56:28.697Z,41.59
2019-06-01T11:58:57.105Z,40.19
2019-06-01T12:01:25.580Z,38.04
2019-06-01T12:03:53.959Z,36.01
2019-06-01T12:06:22.427Z,33.44
2019-06-01T12:08:50.831Z,33.77
2019-06-01T12:11:20.183Z,31.79
2019-06-01T12:13:48.557Z,26.54
2019-06-01T12:16:17.341Z,25.24
2019-06-01T12:18:46.878Z,25.71
2019-06-01T12:21:15.442Z,26.38
2019-06-01T12:23:43.820Z,24.41
2019-06-01T12:26:12.270Z,21.53
2019-06-01T12:28:41.586Z,19.78
2019-06-01T12:31:10.144Z,19.54
2019-06-01T12:33:39.802Z,20.69
2019-06-01T12:36:08.439Z,21.07
2019-06-01T12:38:38.472Z,21.19
2019-06-01T12:41:06.949Z,22.00
2019-06-01T12:43:35.418Z,19.14
2019-06-01T12:46:07.706Z,20.29
2019-06-01T12:48:33.897Z,19.60
2019-06-01T12:51:02.311Z,19.37
2019-06-01T12:53:30.773Z,20.12
2019-06-01T12:55:59.249Z,20.41
2019-06-01T12:58:27.656Z,22.69
2019-06-01T13:00:56.038Z,19.71
2019-06-01T13:03:24.479Z,20.86
2019-06-01T13:05:52.931Z,17.96
2019-06-01T13:08:21.375Z,20.83
2019-06-01T13:10:50.045Z,21.87
2019-06-01T13:13:18.506Z,20.92
2019-06-01T13:15:47.455Z,20.80
2019-06-01T13:18:15.879Z,20.19
2019-06-01T13:20:45.389Z,19.39
2019-06-01T13:23:14.031Z,18.23
2019-06-01T13:25:43.626Z,18.55
2019-06-01T13:28:12.079Z,17.98
2019-06-01T13:30:40.506Z,16.77
2019-06-01T13:33:08.962Z,17.32
2019-06-01T13:35:37.397Z,17.53
2019-06-01T13:38:12.389Z,20.42
2019-06-01T13:40:36.089Z,20.42
2019-06-01T13:43:06.819Z,20.29
2019-06-01T13:45:35.253Z,18.97
2019-06-01T13:48:04.089Z,17.65
2019-06-01T13:50:32.876Z,16.87
2019-06-01T13:53:01.284Z,16.14
2019-06-01T13:55:29.942Z,19.08
2019-06-01T13:57:58.323Z,23.38
2019-06-01T14:00:30.637Z,22.38
2019-06-01T14:02:57.698Z,20.46
2019-06-01T14:05:26.638Z,18.63
2019-06-01T14:07:55.782Z,20.08
2019-06-01T14:10:24.313Z,22.02
2019-06-01T14:12:53.503Z,23.00
2019-06-01T14:15:22.041Z,23.08
2019-06-01T14:17:50.636Z,22.56
2019-06-01T14:20:19.112Z,22.55
2019-06-01T14:22:47.740Z,23.15
2019-06-01T14:25:16.848Z,24.27
2019-06-01T14:27:46.066Z,24.78
2019-06-01T14:30:16.487Z,25.68
2019-06-01T14:32:46.133Z,25.45
2019-06-01T14:35:14.811Z,28.59
2019-06-01T14:37:43.139Z,29.76
2019-06-01T14:40:11.659Z,30.36
2019-06-01T14:42:40.122Z,31.02
2019-06-01T14:45:09.057Z,31.94
2019-06-01T14:47:37.538Z,32.37
2019-06-01T14:50:07.819Z,32.66
2019-06-01T14:52:36.470Z,33.06
2019-06-01T14:55:09.395Z,33.89
2019-06-01T14:57:37.855Z,34.65
2019-06-01T15:00:08.859Z,34.12
2019-06-01T15:02:37.290Z,35.20
2019-06-01T15:05:09.079Z,34.72
2019-06-01T15:07:37.812Z,35.22
2019-06-01T15:10:09.988Z,35.50
2019-06-01T15:12:38.527Z,34.30
2019-06-01T15:15:08.765Z,33.99
2019-06-01T15:17:37.298Z,33.73
2019-06-01T15:20:09.886Z,35.38
2019-06-01T15:22:38.457Z,35.10
2019-06-01T15:25:07.501Z,35.52
2019-06-01T15:27:36.036Z,33.79
2019-06-01T15:30:06.895Z,34.64
2019-06-01T15:32:35.294Z,34.23
2019-06-01T15:35:04.800Z,35.03
2019-06-01T15:37:33.215Z,36.46
2019-06-01T15:40:02.969Z,36.41
2019-06-01T15:42:31.660Z,37.13
2019-06-01T15:45:00.043Z,37.63
2019-06-01T15:47:28.582Z,37.16
2019-06-01T15:49:58.037Z,37.43
2019-06-01T15:52:26.620Z,35.16
2019-06-01T15:54:56.174Z,37.38
2019-06-01T15:57:24.607Z,37.43
2019-06-01T15:59:54.203Z,37.76
2019-06-01T16:02:23.035Z,36.37
2019-06-01T16:04:52.835Z,37.59
2019-06-01T16:07:21.327Z,37.95
2019-06-01T16:09:49.811Z,36.52
2019-06-01T16:12:18.274Z,38.32
2019-06-01T16:14:46.731Z,38.21
2019-06-01T16:17:15.528Z,34.95
2019-06-01T16:19:44.319Z,37.55
2019-06-01T16:22:12.793Z,38.71
2019-06-01T16:24:43.062Z,38.48
2019-06-01T16:27:11.576Z,38.32
2019-06-01T16:29:40.014Z,38.86
2019-06-01T16:32:08.455Z,39.17
2019-06-01T16:34:36.977Z,39.19
2019-06-01T16:37:05.504Z,39.85
2019-06-01T16:39:34.027Z,39.36
2019-06-01T16:42:03.875Z,39.36
2019-06-01T16:44:32.545Z,39.97
2019-06-01T16:47:02.830Z,39.94
2019-06-01T16:49:31.191Z,40.43
2019-06-01T16:52:01.293Z,39.94
2019-06-01T16:54:30.047Z,39.95
2019-06-01T16:56:58.477Z,39.51
2019-06-01T16:59:27.200Z,40.08
2019-06-01T17:01:56.493Z,38.74
2019-06-01T17:04:25.143Z,37.23
2019-06-01T17:06:53.654Z,37.18
2019-06-01T17:09:22.220Z,37.24
2019-06-01T17:11:50.702Z,37.42
2019-06-01T17:14:19.243Z,37.62
2019-06-01T17:16:47.694Z,37.89
2019-06-01T17:19:16.492Z,37.22
2019-06-01T17:21:45.060Z,36.84
2019-06-01T17:24:13.610Z,37.21
2019-06-01T17:26:42.178Z,37.49
2019-06-01T17:29:11.050Z,37.51
2019-06-01T17:31:53.605Z,37.90
2019-06-01T17:34:09.812Z,38.13
2019-06-01T17:36:38.576Z,38.00
2019-06-01T17:39:08.162Z,38.05
2019-06-01T17:41:36.695Z,38.04
2019-06-01T17:44:06.583Z,38.32
2019-06-01T17:46:43.289Z,37.51
2019-06-01T17:49:06.192Z,37.95
2019-06-01T17:51:34.720Z,38.03
2019-06-01T17:54:05.006Z,38.40
2019-06-01T17:56:33.619Z,38.83
2019-06-01T17:59:03.291Z,39.09
2019-06-01T18:01:31.811Z,38.64
2019-06-01T18:04:01.591Z,39.05
2019-06-01T18:06:30.260Z,39.34
2019-06-01T18:08:58.751Z,38.71
2019-06-01T18:11:27.148Z,38.88
2019-06-01T18:13:56.010Z,39.30
2019-06-01T18:16:24.534Z,39.33
2019-06-01T18:18:53.003Z,39.45
2019-06-01T18:21:21.874Z,39.71
2019-06-01T18:23:50.417Z,39.67
2019-06-01T18:26:18.983Z,39.83
2019-06-01T18:28:47.501Z,40.01
2019-06-01T18:31:16.209Z,40.41
2019-06-01T18:33:44.994Z,40.57
2019-06-01T18:36:13.775Z,40.73
2019-06-01T18:38:42.318Z,40.81
2019-06-01T18:41:18.343Z,41.00
2019-06-01T18:43:41.359Z,41.10
2019-06-01T18:46:10.169Z,41.29
2019-06-01T18:48:38.880Z,41.69
2019-06-01T18:51:08.177Z,42.54
2019-06-01T18:53:36.839Z,42.50
2019-06-01T18:56:06.039Z,42.63
2019-06-01T18:58:34.572Z,42.99
2019-06-01T19:01:04.385Z,43.53
2019-06-01T19:03:32.831Z,43.75
2019-06-01T19:06:01.722Z,43.96
2019-06-01T19:08:30.216Z,44.28
2019-06-01T19:10:58.749Z,44.42
2019-06-01T19:13:27.221Z,44.93
2019-06-01T19:15:58.224Z,45.38
2019-06-01T19:18:26.746Z,46.09
2019-06-01T19:20:55.488Z,46.27
2019-06-01T19:23:24.028Z,46.43
2019-06-01T19:25:52.586Z,46.36
2019-06-01T19:28:21.191Z,46.57
2019-06-01T19:30:49.723Z,46.94
2019-06-01T19:33:19.463Z,46.77
2019-06-01T19:35:48.939Z,47.11
2019-06-01T19:38:18.730Z,47.22
2019-06-01T19:40:47.585Z,47.71
2019-06-01T19:43:16.049Z,47.75
2019-06-01T19:45:44.590Z,48.10
2019-06-01T19:48:14.509Z,48.29
2019-06-01T19:50:43.263Z,48.49
2019-06-01T19:53:12.673Z,48.79
2019-06-01T19:55:41.274Z,49.23
2019-06-01T19:58:10.152Z,49.36
2019-06-01T20:00:38.696Z,49.76
2019-06-01T20:03:07.302Z,50.08
2019-06-01T20:05:36.046Z,50.29
2019-06-01T20:08:05.049Z,50.69
2019-06-01T20:10:33.547Z,50.85
2019-06-01T20:13:02.026Z,51.22
2019-06-01T20:15:30.479Z,51.63
2019-06-01T20:17:58.901Z,51.96
2019-06-01T20:20:27.343Z,51.99
2019-06-01T20:22:56.078Z,52.45
2019-06-01T20:25:24.926Z,52.55
2019-06-01T20:27:53.820Z,52.34
2019-06-01T20:30:22.715Z,52.30
2019-06-01T20:32:51.403Z,52.56
2019-06-01T20:35:20.289Z,52.76
2019-06-01T20:37:49.093Z,52.81
2019-06-01T20:40:18.427Z,53.11
2019-06-01T20:42:47.219Z,53.40
2019-06-01T20:45:16.722Z,53.57
2019-06-01T20:47:45.513Z,53.43
2019-06-01T20:50:15.022Z,53.69
2019-06-01T20:52:43.570Z,54.00
2019-06-01T20:55:12.850Z,53.89
2019-06-01T20:57:41.466Z,54.07
2019-06-01T21:00:10.313Z,54.48
2019-06-01T21:02:39.357Z,54.47
2019-06-01T21:05:08.539Z,54.63
2019-06-01T21:07:37.089Z,54.90
2019-06-01T21:10:10.818Z,55.62
2019-06-01T21:12:45.298Z,55.55
2019-06-01T21:15:09.955Z,55.28
2019-06-01T21:17:38.529Z,55.23
2019-06-01T21:20:07.885Z,55.34
2019-06-01T21:22:36.437Z,55.66
2019-06-01T21:25:06.966Z,55.82
2019-06-01T21:27:35.416Z,55.88
2019-06-01T21:30:08.274Z,56.19
2019-06-01T21:32:36.780Z,56.31
2019-06-01T21:35:06.121Z,56.30
2019-06-01T21:37:34.523Z,56.58
2019-06-01T21:40:03.200Z,56.57
2019-06-01T21:42:31.715Z,56.55
2019-06-01T21:45:00.170Z,56.41
2019-06-01T21:47:28.806Z,56.40
2019-06-01T21:49:57.261Z,56.34
2019-06-01T21:52:26.397Z,56.44
2019-06-01T21:54:54.965Z,56.31
2019-06-01T21:57:24.596Z,56.57
2019-06-01T21:59:53.146Z,56.84
2019-06-01T22:02:23.042Z,57.00
2019-06-01T22:04:51.611Z,57.42
2019-06-01T22:07:21.156Z,56.48
2019-06-01T22:09:49.732Z,56.36
2019-06-01T22:12:21.359Z,56.53
2019-06-01T22:14:49.921Z,56.19
2019-06-01T22:17:20.219Z,56.14
2019-06-01T22:19:48.654Z,56.28
2019-06-01T22:22:17.858Z,56.13
2019-06-01T22:24:46.299Z,56.30
2019-06-01T22:27:14.666Z,56.38
2019-06-01T22:29:43.207Z,56.77
2019-06-01T22:32:11.652Z,56.91
2019-06-01T22:34:40.405Z,57.07
2019-06-01T22:37:09.005Z,57.05
2019-06-01T22:39:37.393Z,57.49
2019-06-01T22:42:05.898Z,57.42
2019-06-01T22:44:34.393Z,57.55
2019-06-01T22:47:02.776Z,57.72
2019-06-01T22:49:31.148Z,57.85
2019-06-01T22:51:59.575Z,58.29
2019-06-01T22:54:29.280Z,58.23
2019-06-01T22:56:57.939Z,58.07
2019-06-01T22:59:26.810Z,58.51
2019-06-01T23:01:55.258Z,58.62
2019-06-01T23:04:24.956Z,58.98
2019-06-01T23:06:53.594Z,59.13
2019-06-01T23:09:23.015Z,59.47
2019-06-01T23:11:51.581Z,59.62
2019-06-01T23:14:21.336Z,59.81
2019-06-01T23:16:49.955Z,60.04
2019-06-01T23:19:18.389Z,60.17
2019-06-01T23:21:46.877Z,60.38
2019-06-01T23:24:15.471Z,60.64
2019-06-01T23:26:44.042Z,60.97
2019-06-01T23:29:12.428Z,61.22
2019-06-01T23:31:40.896Z,61.52
2019-06-01T23:34:09.320Z,61.63
2019-06-01T23:36:38.111Z,61.86
2019-06-01T23:39:07.433Z,62.01
2019-06-01T23:41:35.952Z,62.16
2019-06-01T23:44:12.007Z,62.36
2019-06-01T23:46:34.632Z,62.66
2019-06-01T23:49:03.071Z,62.71
2019-06-01T23:51:32.057Z,62.99
2019-06-01T23:54:00.875Z,63.43
2019-06-01T23:56:29.770Z,63.55
2019-06-01T23:58:58.349Z,63.46
